createdAt,value
2019-01-28T00:00:56.292Z,61.66
2019-01-28T00:03:24.758Z,62.90
2019-01-28T00:05:53.047Z,64.67
2019-01-28T00:08:22.177Z,65.05
2019-01-28T00:10:50.518Z,65.22
2019-01-28T00:13:18.951Z,63.76
2019-01-28T00:15:47.840Z,63.17
2019-01-28T00:18:16.234Z,62.66
2019-01-28T00:20:44.541Z,62.93
2019-01-28T00:23:12.825Z,62.60
2019-01-28T00:25:41.154Z,61.64
2019-01-28T00:28:10.674Z,61.34
2019-01-28T00:30:38.924Z,61.26
2019-01-28T00:33:07.320Z,60.91
2019-01-28T00:35:37.231Z,61.48
2019-01-28T00:38:05.512Z,60.98
2019-01-28T00:40:33.843Z,62.05
2019-01-28T00:43:02.136Z,61.92
2019-01-28T00:45:30.414Z,61.08
2019-01-28T00:47:58.742Z,60.72
2019-01-28T00:50:27.034Z,60.75
2019-01-28T00:52:55.310Z,60.80
2019-01-28T00:55:23.626Z,60.77
2019-01-28T00:57:53.176Z,60.83
2019-01-28T01:00:23.318Z,60.49
2019-01-28T01:02:51.709Z,61.98
2019-01-28T01:05:20.069Z,60.66
2019-01-28T01:07:48.360Z,62.38
2019-01-28T01:10:17.535Z,63.61
2019-01-28T01:12:45.808Z,62.49
2019-01-28T01:15:16.043Z,62.25
2019-01-28T01:17:46.008Z,62.67
2019-01-28T01:20:15.928Z,62.18
2019-01-28T01:22:44.290Z,61.99
2019-01-28T01:25:13.346Z,61.78
2019-01-28T01:27:41.637Z,61.39
2019-01-28T01:30:15.547Z,60.86
2019-01-28T01:32:43.896Z,60.79
2019-01-28T01:35:12.229Z,60.57
2019-01-28T01:37:40.519Z,60.96
2019-01-28T01:40:13.827Z,60.90
2019-01-28T01:42:42.098Z,61.37
2019-01-28T01:45:12.835Z,61.07
2019-01-28T01:47:42.794Z,60.67
2019-01-28T01:50:11.694Z,60.44
2019-01-28T01:52:39.977Z,60.59
2019-01-28T01:55:10.851Z,61.11
2019-01-28T01:57:39.145Z,61.13
2019-01-28T02:00:15.850Z,60.86
2019-01-28T02:02:44.122Z,60.73
2019-01-28T02:05:12.479Z,60.66
2019-01-28T02:07:40.812Z,60.41
2019-01-28T02:10:13.991Z,60.55
2019-01-28T02:12:43.122Z,60.47
2019-01-28T02:15:14.543Z,60.73
2019-01-28T02:17:42.853Z,60.26
2019-01-28T02:20:11.764Z,60.56
2019-01-28T02:22:40.105Z,60.86
2019-01-28T02:25:10.819Z,60.54
2019-01-28T02:27:39.100Z,60.57
2019-01-28T02:30:15.091Z,60.71
2019-01-28T02:32:43.384Z,60.60
2019-01-28T02:38:30.636Z,61.84
2019-01-28T02:40:58.910Z,61.69
2019-01-28T02:43:27.196Z,61.21
2019-01-28T02:45:55.523Z,61.03
2019-01-28T02:48:23.827Z,60.82
2019-01-28T02:50:52.099Z,60.78
2019-01-28T02:53:20.418Z,61.79
2019-01-28T02:55:48.689Z,60.73
2019-01-28T02:58:16.967Z,61.53
2019-01-28T03:00:45.285Z,61.08
2019-01-28T03:03:13.570Z,61.35
2019-01-28T03:05:41.861Z,62.15
2019-01-28T03:08:10.178Z,61.76
2019-01-28T03:10:38.470Z,63.24
2019-01-28T03:13:06.751Z,62.05
2019-01-28T03:15:35.132Z,61.59
2019-01-28T03:18:03.403Z,62.74
2019-01-28T03:20:31.696Z,62.37
2019-01-28T03:23:00.016Z,62.56
2019-01-28T03:25:28.370Z,62.53
2019-01-28T03:27:56.653Z,64.55
2019-01-28T03:30:24.978Z,62.86
2019-01-28T03:32:53.279Z,62.72
2019-01-28T03:35:21.557Z,62.53
2019-01-28T03:37:49.887Z,62.24
2019-01-28T03:40:19.814Z,62.76
2019-01-28T03:42:48.635Z,62.51
2019-01-28T03:45:18.897Z,62.31
2019-01-28T03:47:47.175Z,61.90
2019-01-28T03:50:17.098Z,61.71
2019-01-28T03:52:45.588Z,62.01
2019-01-28T03:55:13.862Z,62.35
2019-01-28T03:57:42.197Z,62.01
2019-01-28T04:00:18.589Z,62.12
2019-01-28T04:02:46.858Z,62.05
2019-01-28T04:05:15.152Z,62.51
2019-01-28T04:07:43.516Z,62.62
2019-01-28T04:10:15.054Z,62.21
2019-01-28T04:12:43.343Z,65.60
2019-01-28T04:15:14.004Z,66.42
2019-01-28T04:17:42.286Z,65.75
2019-01-28T04:20:12.915Z,64.41
2019-01-28T04:22:41.241Z,64.40
2019-01-28T04:25:10.773Z,63.82
2019-01-28T04:27:39.055Z,63.05
2019-01-28T04:30:10.639Z,62.88
2019-01-28T04:32:38.936Z,63.47
2019-01-28T04:35:08.678Z,63.19
2019-01-28T04:37:36.989Z,63.00
2019-01-28T04:40:11.343Z,62.68
2019-01-28T04:42:39.632Z,62.61
2019-01-28T04:45:10.693Z,63.54
2019-01-28T04:47:38.994Z,64.43
2019-01-28T04:50:10.494Z,64.77
2019-01-28T04:52:38.819Z,63.39
2019-01-28T04:55:08.245Z,63.17
2019-01-28T04:57:36.696Z,63.33
2019-01-28T05:00:08.341Z,63.41
2019-01-28T05:02:36.634Z,63.38
2019-01-28T05:05:05.766Z,62.81
2019-01-28T05:07:34.082Z,62.86
2019-01-28T05:10:02.848Z,62.65
2019-01-28T05:12:31.188Z,62.66
2019-01-28T05:14:59.532Z,62.29
2019-01-28T05:17:27.815Z,61.88
2019-01-28T05:19:56.097Z,62.19
2019-01-28T05:22:24.423Z,62.23
2019-01-28T05:24:52.716Z,62.47
2019-01-28T05:27:20.998Z,62.54
2019-01-28T05:29:49.317Z,63.24
2019-01-28T05:32:17.614Z,64.29
2019-01-28T05:34:45.904Z,63.82
2019-01-28T05:37:15.011Z,63.10
2019-01-28T05:39:43.279Z,62.68
2019-01-28T05:42:11.567Z,62.24
2019-01-28T05:44:39.885Z,62.21
2019-01-28T05:47:08.163Z,65.99
2019-01-28T05:49:36.452Z,64.92
2019-01-28T05:52:04.789Z,64.63
2019-01-28T05:54:33.072Z,64.35
2019-01-28T05:57:01.357Z,65.39
2019-01-28T05:59:29.672Z,64.27
2019-01-28T06:01:57.948Z,63.75
2019-01-28T06:04:26.234Z,63.63
2019-01-28T06:06:54.543Z,63.65
2019-01-28T06:09:22.823Z,63.69
2019-01-28T06:11:51.115Z,63.41
2019-01-28T06:14:19.439Z,62.87
2019-01-28T06:16:47.792Z,63.16
2019-01-28T06:19:16.078Z,63.68
2019-01-28T06:21:44.384Z,62.85
2019-01-28T06:24:12.664Z,62.23
2019-01-28T06:26:40.945Z,62.34
2019-01-28T06:29:09.238Z,62.20
2019-01-28T06:31:37.518Z,62.12
2019-01-28T06:34:05.804Z,62.18
2019-01-28T06:36:34.126Z,62.15
2019-01-28T06:39:02.479Z,61.87
2019-01-28T06:41:30.763Z,61.88
2019-01-28T06:43:59.078Z,61.76
2019-01-28T06:46:27.355Z,62.09
2019-01-28T06:48:55.639Z,62.35
2019-01-28T06:51:23.957Z,61.91
2019-01-28T06:53:52.243Z,62.06
2019-01-28T06:56:20.532Z,61.71
2019-01-28T06:58:48.846Z,61.53
2019-01-28T07:01:17.129Z,61.36
2019-01-28T07:03:45.404Z,63.23
2019-01-28T07:06:13.773Z,62.22
2019-01-28T07:08:43.786Z,61.97
2019-01-28T07:11:12.102Z,61.59
2019-01-28T07:13:40.488Z,61.72
2019-01-28T07:16:09.448Z,62.46
2019-01-28T07:18:37.732Z,61.29
2019-01-28T07:21:06.042Z,61.54
2019-01-28T07:23:34.317Z,60.88
2019-01-28T07:26:02.597Z,61.60
2019-01-28T07:28:30.926Z,61.36
2019-01-28T07:30:59.252Z,61.10
2019-01-28T07:33:27.532Z,60.77
2019-01-28T07:35:55.847Z,60.40
2019-01-28T07:38:24.145Z,60.06
2019-01-28T07:40:52.425Z,60.01
2019-01-28T07:43:20.745Z,60.11
2019-01-28T07:45:49.021Z,59.52
2019-01-28T07:48:17.371Z,59.44
2019-01-28T07:50:45.683Z,59.68
2019-01-28T07:53:14.034Z,59.44
2019-01-28T07:55:42.384Z,59.11
2019-01-28T07:58:10.760Z,58.88
2019-01-28T08:00:39.041Z,59.05
2019-01-28T08:03:07.318Z,59.21
2019-01-28T08:05:35.655Z,63.57
2019-01-28T08:08:04.097Z,62.45
2019-01-28T08:10:32.380Z,63.92
2019-01-28T08:13:00.691Z,62.67
2019-01-28T08:15:29.144Z,62.82
2019-01-28T08:17:57.501Z,62.58
2019-01-28T08:20:25.813Z,62.57
2019-01-28T08:22:54.090Z,61.02
2019-01-28T08:25:22.605Z,67.24
2019-01-28T08:27:51.037Z,66.93
2019-01-28T08:30:27.392Z,64.53
2019-01-28T08:32:55.794Z,64.18
2019-01-28T08:35:24.222Z,65.66
2019-01-28T08:37:52.521Z,64.20
2019-01-28T08:40:22.702Z,63.82
2019-01-28T08:42:50.995Z,65.28
2019-01-28T08:45:19.274Z,65.33
2019-01-28T08:47:47.596Z,62.62
2019-01-28T08:50:26.642Z,61.65
2019-01-28T08:52:55.047Z,61.69
2019-01-28T08:55:25.275Z,62.18
2019-01-28T08:57:53.793Z,63.76
2019-01-28T09:00:24.410Z,61.95
2019-01-28T09:02:52.693Z,59.32
2019-01-28T09:05:22.398Z,59.32
2019-01-28T09:07:50.853Z,58.50
2019-01-28T09:10:21.987Z,58.87
2019-01-28T09:12:50.277Z,58.80
2019-01-28T09:15:20.614Z,58.34
2019-01-28T09:17:48.973Z,60.44
2019-01-28T09:20:28.747Z,60.44
2019-01-28T09:22:57.097Z,60.50
2019-01-28T09:25:25.382Z,61.63
2019-01-28T09:27:53.703Z,61.52
2019-01-28T09:30:26.970Z,61.02
2019-01-28T09:32:55.241Z,58.64
2019-01-28T09:35:23.625Z,58.29
2019-01-28T09:37:52.153Z,58.29
2019-01-28T09:40:25.270Z,59.22
2019-01-28T09:42:53.672Z,59.22
2019-01-28T09:45:24.392Z,58.79
2019-01-28T09:47:52.683Z,58.66
2019-01-28T09:50:21.091Z,59.47
2019-01-28T09:52:50.409Z,59.47
2019-01-28T09:55:18.695Z,61.83
2019-01-28T09:57:47.090Z,61.83
2019-01-28T10:00:21.942Z,61.83
2019-01-28T10:02:50.222Z,62.45
2019-01-28T10:05:18.557Z,62.05
2019-01-28T10:07:46.827Z,59.74
2019-01-28T10:10:19.409Z,58.70
2019-01-28T10:12:47.743Z,59.68
2019-01-28T10:15:19.272Z,59.68
2019-01-28T10:17:47.553Z,59.51
2019-01-28T10:20:19.194Z,59.51
2019-01-28T10:22:47.480Z,59.49
2019-01-28T10:25:15.834Z,60.43
2019-01-28T10:27:44.328Z,62.73
2019-01-28T10:30:15.916Z,62.84
2019-01-28T10:32:44.273Z,60.11
2019-01-28T10:35:12.590Z,60.11
2019-01-28T10:37:40.946Z,62.40
2019-01-28T10:40:15.308Z,62.40
2019-01-28T10:42:43.621Z,61.10
2019-01-28T10:45:13.757Z,64.04
2019-01-28T10:47:42.117Z,60.85
2019-01-28T10:50:13.982Z,61.43
2019-01-28T10:52:42.465Z,61.43
2019-01-28T10:55:12.554Z,59.98
2019-01-28T10:57:40.886Z,59.98
2019-01-28T11:00:15.069Z,62.75
2019-01-28T11:02:43.431Z,59.82
2019-01-28T11:05:11.746Z,59.82
2019-01-28T11:07:40.024Z,60.54
2019-01-28T11:10:11.813Z,62.36
2019-01-28T11:12:40.185Z,62.36
2019-01-28T11:15:14.705Z,60.64
2019-01-28T11:17:43.003Z,58.22
2019-01-28T11:20:12.718Z,57.65
2019-01-28T11:22:41.236Z,56.12
2019-01-28T11:25:15.087Z,57.46
2019-01-28T11:27:43.541Z,56.22
2019-01-28T11:30:15.242Z,54.51
2019-01-28T11:32:43.650Z,56.09
2019-01-28T11:35:12.051Z,54.48
2019-01-28T11:37:40.416Z,55.94
2019-01-28T11:40:14.395Z,55.94
2019-01-28T11:42:42.820Z,56.50
2019-01-28T11:45:14.560Z,55.72
2019-01-28T11:47:42.923Z,59.86
2019-01-28T11:50:14.286Z,61.12
2019-01-28T11:52:42.785Z,61.47
2019-01-28T11:55:11.078Z,59.14
2019-01-28T11:57:39.400Z,59.14
2019-01-28T12:00:37.602Z,58.99
2019-01-28T12:03:06.055Z,59.05
2019-01-28T12:05:34.632Z,59.83
2019-01-28T12:08:04.211Z,59.03
2019-01-28T12:10:32.668Z,59.46
2019-01-28T12:13:01.091Z,58.91
2019-01-28T12:15:29.592Z,60.09
2019-01-28T12:17:57.911Z,60.09
2019-01-28T12:20:26.399Z,57.97
2019-01-28T12:22:54.686Z,57.26
2019-01-28T12:25:23.076Z,59.03
2019-01-28T12:27:51.504Z,58.93
2019-01-28T12:30:23.042Z,58.87
2019-01-28T12:32:51.495Z,58.07
2019-01-28T12:35:19.991Z,59.49
2019-01-28T12:37:48.287Z,59.75
2019-01-28T12:40:20.708Z,59.42
2019-01-28T12:42:49.058Z,59.66
2019-01-28T12:45:22.004Z,57.40
2019-01-28T12:47:50.538Z,57.05
2019-01-28T12:50:20.361Z,56.19
2019-01-28T12:52:48.865Z,57.35
2019-01-28T12:55:21.401Z,58.11
2019-01-28T12:57:49.985Z,59.39
2019-01-28T13:00:28.526Z,60.31
2019-01-28T13:02:57.008Z,61.33
2019-01-28T13:05:25.987Z,60.83
2019-01-28T13:07:54.307Z,61.96
2019-01-28T13:10:24.090Z,62.18
2019-01-28T13:12:52.367Z,63.46
2019-01-28T13:15:26.712Z,61.31
2019-01-28T13:17:54.994Z,59.51
2019-01-28T13:20:23.488Z,58.37
2019-01-28T13:22:52.035Z,58.14
2019-01-28T13:25:22.525Z,57.57
2019-01-28T13:27:51.021Z,57.49
2019-01-28T13:30:24.482Z,56.86
2019-01-28T13:32:52.968Z,58.09
2019-01-28T13:35:21.448Z,57.42
2019-01-28T13:37:49.830Z,58.55
2019-01-28T13:40:19.916Z,60.82
2019-01-28T13:42:48.200Z,58.67
2019-01-28T13:45:21.371Z,60.79
2019-01-28T13:47:50.089Z,60.48
2019-01-28T13:50:21.138Z,58.89
2019-01-28T13:52:49.649Z,62.87
2019-01-28T13:55:18.937Z,61.85
2019-01-28T13:57:47.427Z,59.70
2019-01-28T14:00:24.521Z,59.61
2019-01-28T14:02:52.798Z,60.49
2019-01-28T14:05:21.286Z,60.42
2019-01-28T14:07:49.612Z,61.40
2019-01-28T14:10:20.457Z,61.36
2019-01-28T14:12:48.870Z,61.06
2019-01-28T14:15:25.880Z,60.85
2019-01-28T14:17:54.370Z,61.07
2019-01-28T14:20:30.753Z,59.21
2019-01-28T14:22:59.227Z,59.50
2019-01-28T14:25:27.574Z,60.19
2019-01-28T14:27:56.115Z,62.26
2019-01-28T14:30:36.217Z,61.33
2019-01-28T14:33:05.133Z,62.23
2019-01-28T14:35:33.547Z,60.65
2019-01-28T14:38:03.705Z,61.41
2019-01-28T14:40:32.139Z,63.58
2019-01-28T14:43:00.629Z,61.78
2019-01-28T14:45:29.114Z,62.49
2019-01-28T14:47:57.643Z,63.46
2019-01-28T14:50:32.004Z,63.66
2019-01-28T14:53:00.494Z,61.64
2019-01-28T14:55:29.023Z,61.64
2019-01-28T14:57:57.514Z,61.35
2019-01-28T15:00:29.052Z,60.44
2019-01-28T15:02:57.570Z,63.79
2019-01-28T15:05:25.922Z,62.70
2019-01-28T15:07:54.575Z,61.13
2019-01-28T15:10:23.320Z,61.99
2019-01-28T15:12:51.827Z,61.99
2019-01-28T15:15:22.919Z,63.24
2019-01-28T15:17:51.455Z,64.14
2019-01-28T15:20:19.938Z,64.72
2019-01-28T15:22:48.426Z,64.72
2019-01-28T15:25:17.452Z,64.32
2019-01-28T15:27:45.865Z,64.32
2019-01-28T15:30:23.471Z,62.98
2019-01-28T15:32:51.987Z,62.98
2019-01-28T15:35:20.518Z,66.35
2019-01-28T15:37:49.057Z,66.05
2019-01-28T15:40:20.061Z,66.05
2019-01-28T15:42:48.546Z,64.87
2019-01-28T15:45:28.681Z,65.37
2019-01-28T15:47:57.168Z,63.65
2019-01-28T15:50:25.659Z,63.23
2019-01-28T15:52:54.183Z,62.98
2019-01-28T15:55:28.458Z,62.85
2019-01-28T15:57:56.943Z,62.21
2019-01-28T16:00:27.979Z,62.21
2019-01-28T16:02:56.462Z,62.46
2019-01-28T16:05:24.955Z,62.46
2019-01-28T16:07:53.481Z,62.49
2019-01-28T16:10:21.969Z,62.07
2019-01-28T16:12:50.459Z,61.97
2019-01-28T16:15:24.785Z,64.56
2019-01-28T16:17:53.276Z,63.54
2019-01-28T16:20:21.777Z,63.55
2019-01-28T16:22:50.317Z,63.26
2019-01-28T16:25:18.800Z,64.41
2019-01-28T16:27:47.288Z,63.91
2019-01-28T16:30:26.445Z,64.84
2019-01-28T16:32:54.047Z,64.84
2019-01-28T16:35:23.494Z,65.62
2019-01-28T16:37:52.972Z,65.76
2019-01-28T16:40:26.647Z,66.64
2019-01-28T16:42:55.665Z,66.25
2019-01-28T16:45:24.892Z,65.10
2019-01-28T16:47:53.863Z,64.27
2019-01-28T16:50:31.309Z,63.84
2019-01-28T16:53:00.463Z,64.60
2019-01-28T16:55:29.253Z,65.04
2019-01-28T16:57:58.897Z,66.47
2019-01-28T17:00:30.060Z,66.10
2019-01-28T17:02:58.757Z,65.38
2019-01-28T17:05:27.803Z,64.62
2019-01-28T17:07:56.719Z,64.33
2019-01-28T17:10:25.626Z,66.54
2019-01-28T17:12:54.398Z,66.88
2019-01-28T17:15:23.997Z,66.96
2019-01-28T17:17:52.908Z,67.68
2019-01-28T17:20:35.530Z,67.53
2019-01-28T17:23:02.815Z,67.94
2019-01-28T17:25:40.341Z,69.05
2019-01-28T17:28:09.137Z,68.21
2019-01-28T17:30:43.258Z,69.11
2019-01-28T17:33:12.106Z,69.34
2019-01-28T17:35:40.910Z,69.67
2019-01-28T17:38:10.700Z,69.02
2019-01-28T17:40:40.159Z,67.52
2019-01-28T17:43:10.732Z,66.07
2019-01-28T17:45:39.536Z,65.86
2019-01-28T17:48:09.087Z,65.55
2019-01-28T17:50:43.373Z,64.94
2019-01-28T17:53:08.305Z,64.28
2019-01-28T17:55:37.048Z,64.29
2019-01-28T17:58:06.669Z,65.61
2019-01-28T18:00:39.783Z,64.80
2019-01-28T18:03:08.512Z,64.88
2019-01-28T18:05:37.321Z,64.75
2019-01-28T18:08:06.625Z,67.91
2019-01-28T18:10:35.466Z,66.89
2019-01-28T18:13:04.276Z,66.07
2019-01-28T18:15:32.983Z,66.19
2019-01-28T18:18:04.633Z,65.86
2019-01-28T18:20:36.331Z,65.75
2019-01-28T18:23:05.238Z,65.11
2019-01-28T18:25:36.731Z,66.22
2019-01-28T18:28:06.238Z,65.74
2019-01-28T18:30:51.988Z,65.19
2019-01-28T18:33:20.707Z,65.16
2019-01-28T18:35:49.502Z,64.87
2019-01-28T18:38:19.708Z,64.80
2019-01-28T18:40:48.425Z,68.48
2019-01-28T18:43:17.342Z,68.48
2019-01-28T18:45:46.172Z,68.53
2019-01-28T18:48:16.350Z,67.20
2019-01-28T18:50:45.060Z,65.44
2019-01-28T18:53:13.826Z,64.67
2019-01-28T18:55:43.961Z,66.16
2019-01-28T18:58:12.673Z,66.16
2019-01-28T19:00:41.417Z,65.94
2019-01-28T19:03:10.119Z,65.68
2019-01-28T19:05:56.628Z,64.85
2019-01-28T19:08:27.004Z,64.85
2019-01-28T19:11:00.282Z,64.44
2019-01-28T19:13:30.563Z,64.49
2019-01-28T19:16:00.947Z,65.06
2019-01-28T19:18:34.407Z,66.87
2019-01-28T19:21:13.504Z,65.82
2019-01-28T19:23:42.642Z,65.45
2019-01-28T19:26:11.527Z,64.94
2019-01-28T19:28:40.230Z,64.94
2019-01-28T19:31:09.083Z,67.21
2019-01-28T19:33:37.783Z,65.19
2019-01-28T19:36:06.624Z,68.30
2019-01-28T19:38:35.375Z,66.11
2019-01-28T19:41:04.189Z,67.27
2019-01-28T19:43:32.890Z,65.65
2019-01-28T19:46:01.632Z,67.24
2019-01-28T19:48:30.328Z,65.58
2019-01-28T19:51:00.505Z,65.58
2019-01-28T19:53:29.254Z,65.27
2019-01-28T19:55:57.967Z,64.32
2019-01-28T19:58:26.679Z,64.18
2019-01-28T20:00:55.424Z,63.99
2019-01-28T20:03:24.135Z,63.81
2019-01-28T20:05:52.830Z,65.29
2019-01-28T20:08:21.579Z,67.09
2019-01-28T20:10:50.494Z,67.09
2019-01-28T20:13:19.291Z,66.15
2019-01-28T20:15:48.044Z,65.51
2019-01-28T20:18:16.747Z,65.80
2019-01-28T20:20:45.447Z,66.32
2019-01-28T20:23:14.235Z,68.50
2019-01-28T20:25:42.946Z,66.75
2019-01-28T20:28:13.201Z,67.76
2019-01-28T20:30:42.003Z,68.01
2019-01-28T20:33:10.710Z,66.51
2019-01-28T20:35:39.431Z,68.40
2019-01-28T20:38:15.404Z,67.38
2019-01-28T20:40:38.624Z,66.03
2019-01-28T20:43:08.327Z,65.57
2019-01-28T20:45:44.933Z,65.57
2019-01-28T20:48:10.295Z,66.04
2019-01-28T20:50:38.995Z,66.31
2019-01-28T20:53:07.756Z,66.31
2019-01-28T20:55:36.475Z,67.11
2019-01-28T20:58:05.619Z,66.48
2019-01-28T21:00:34.352Z,65.82
2019-01-28T21:03:03.033Z,68.41
2019-01-28T21:05:31.734Z,67.34
2019-01-28T21:08:01.940Z,66.05
2019-01-28T21:10:30.647Z,67.18
2019-01-28T21:12:59.351Z,69.20
2019-01-28T21:15:28.163Z,68.46
2019-01-28T21:17:56.823Z,67.98
2019-01-28T21:20:25.537Z,67.26
2019-01-28T21:22:54.276Z,66.56
2019-01-28T21:25:28.724Z,67.61
2019-01-28T21:27:57.551Z,66.61
2019-01-28T21:30:31.717Z,65.54
2019-01-28T21:33:00.513Z,65.21
2019-01-28T21:35:49.185Z,66.48
2019-01-28T21:38:25.571Z,66.77
2019-01-28T21:40:54.314Z,65.86
2019-01-28T21:43:23.013Z,67.15
2019-01-28T21:45:52.570Z,66.63
2019-01-28T21:48:21.315Z,65.84
2019-01-28T21:50:50.022Z,64.72
2019-01-28T21:53:18.716Z,64.90
2019-01-28T21:55:47.453Z,65.35
2019-01-28T21:58:16.151Z,64.73
2019-01-28T22:00:45.014Z,66.17
2019-01-28T22:03:13.753Z,65.58
2019-01-28T22:05:42.449Z,66.24
2019-01-28T22:08:11.083Z,66.51
2019-01-28T22:10:39.746Z,68.17
2019-01-28T22:13:08.509Z,67.24
2019-01-28T22:15:37.215Z,66.40
2019-01-28T22:18:06.047Z,66.41
2019-01-28T22:20:34.685Z,66.41
2019-01-28T22:23:03.307Z,65.96
2019-01-28T22:25:32.046Z,65.60
2019-01-28T22:28:00.753Z,65.60
2019-01-28T22:30:29.380Z,67.46
2019-01-28T22:32:58.041Z,67.20
2019-01-28T22:35:26.665Z,67.43
2019-01-28T22:37:55.291Z,65.71
2019-01-28T22:40:23.952Z,66.01
2019-01-28T22:42:52.654Z,66.98
2019-01-28T22:45:21.781Z,67.13
2019-01-28T22:47:51.318Z,67.25
2019-01-28T22:50:21.352Z,67.25
2019-01-28T22:52:49.988Z,67.82
2019-01-28T22:55:21.886Z,66.22
2019-01-28T22:57:50.529Z,66.19
2019-01-28T23:00:51.327Z,65.80
2019-01-28T23:03:21.667Z,66.14
2019-01-28T23:05:50.298Z,68.27
2019-01-28T23:08:18.966Z,68.05
2019-01-28T23:10:47.597Z,66.88
2019-01-28T23:13:16.223Z,66.68
2019-01-28T23:15:44.890Z,66.51
2019-01-28T23:18:13.525Z,68.41
2019-01-28T23:20:42.149Z,67.15
2019-01-28T23:23:10.815Z,66.73
2019-01-28T23:25:39.458Z,67.08
2019-01-28T23:28:09.184Z,69.68
2019-01-28T23:30:37.942Z,69.68
2019-01-28T23:33:06.674Z,71.63
2019-01-28T23:35:35.303Z,69.23
2019-01-28T23:38:05.167Z,68.23
2019-01-28T23:40:33.822Z,66.58
2019-01-28T23:43:02.438Z,68.40
2019-01-28T23:45:31.114Z,66.36
2019-01-28T23:47:59.745Z,66.36
2019-01-28T23:50:29.225Z,66.47
2019-01-28T23:52:57.874Z,66.01
2019-01-28T23:55:26.501Z,65.92
2019-01-28T23:57:56.894Z,65.80
